Time;durP1;ratioP1;P1;durP2;ratioP2;P2;SDS_P1;SDS_P2;PMS_P1;PMS_P2;Temp;Humidity;BMP_temperature;BMP_pressure;BME280_temperature;BME280_humidity;BME280_pressure;Samples;Min_cycle;Max_cycle;Signal;HPM_P1;HPM_P2
2023/04/09 00:01:54;;;;;;;10.00;5.60;;;;;;;;;;7390768;19;20005;-70
2023/04/09 00:04:21;;;;;;;9.05;5.25;;;;;;;;;;7391913;19;19994;-70
2023/04/09 00:06:47;;;;;;;9.75;5.40;;;;;;;;;;7391640;19;20336;-69
2023/04/09 00:09:12;;;;;;;9.75;5.07;;;;;;;;;;7391361;19;20001;-70
2023/04/09 00:11:37;;;;;;;9.57;5.18;;;;;;;;;;7391065;19;20115;-71
2023/04/09 00:14:02;;;;;;;9.30;5.43;;;;;;;;;;7395674;19;20001;-69
2023/04/09 00:16:28;;;;;;;8.57;5.25;;;;;;;;;;7392566;19;19994;-71
2023/04/09 00:18:53;;;;;;;10.07;5.13;;;;;;;;;;7388292;19;19998;-69
2023/04/09 00:21:19;;;;;;;10.38;5.43;;;;;;;;;;7390664;19;20058;-69
2023/04/09 00:23:44;;;;;;;10.90;5.10;;;;;;;;;;7389401;19;20015;-70
2023/04/09 00:26:10;;;;;;;10.77;4.95;;;;;;;;;;7391227;19;19999;-71
2023/04/09 00:28:35;;;;;;;9.68;4.80;;;;;;;;;;7391168;19;20008;-70
2023/04/09 00:31:02;;;;;;;10.00;5.07;;;;;;;;;;7390117;19;20483;-70
2023/04/09 00:33:27;;;;;;;9.80;5.20;;;;;;;;;;7388965;19;20007;-70
2023/04/09 00:35:52;;;;;;;10.30;5.50;;;;;;;;;;7390412;19;20030;-70
2023/04/09 00:38:18;;;;;;;10.50;5.47;;;;;;;;;;7389844;19;20007;-68
2023/04/09 00:40:47;;;;;;;11.45;6.15;;;;;;;;;;7390082;19;20003;-70
2023/04/09 00:43:12;;;;;;;9.75;5.10;;;;;;;;;;7389954;19;19999;-70
2023/04/09 00:45:37;;;;;;;9.80;5.45;;;;;;;;;;7390681;19;20474;-70
2023/04/09 00:48:03;;;;;;;10.80;6.00;;;;;;;;;;7388372;19;19994;-69
2023/04/09 00:50:29;;;;;;;9.85;5.18;;;;;;;;;;7389723;19;19999;-70
2023/04/09 00:52:54;;;;;;;10.45;5.45;;;;;;;;;;7389160;19;20080;-70
2023/04/09 00:55:20;;;;;;;10.93;5.63;;;;;;;;;;7390403;19;20029;-69
2023/04/09 00:57:45;;;;;;;11.68;5.55;;;;;;;;;;7389669;19;19998;-69
2023/04/09 01:00:11;;;;;;;11.13;5.85;;;;;;;;;;7389155;19;19998;-70
2023/04/09 01:02:37;;;;;;;10.05;5.85;;;;;;;;;;7386610;19;20364;-70
2023/04/09 01:05:03;;;;;;;8.80;5.05;;;;;;;;;;7389289;19;20072;-70
2023/04/09 01:08:00;;;;;;;10.48;5.43;;;;;;;;;;7389378;19;20416;-69
2023/04/09 01:10:39;;;;;;;13.68;5.50;;;;;;;;;;7389098;19;20002;-70
2023/04/09 01:13:15;;;;;;;11.80;6.05;;;;;;;;;;7388260;19;19998;-71
2023/04/09 01:15:48;;;;;;;12.75;6.60;;;;;;;;;;7390328;19;19999;-70
2023/04/09 01:18:23;;;;;;;13.90;5.88;;;;;;;;;;7388604;19;19994;-69
2023/04/09 01:21:04;;;;;;;10.02;5.20;;;;;;;;;;7388507;19;20415;-69
2023/04/09 01:23:46;;;;;;;10.35;5.60;;;;;;;;;;7387604;19;20019;-69
2023/04/09 01:26:25;;;;;;;12.40;5.80;;;;;;;;;;7389263;19;19999;-70
2023/04/09 01:28:53;;;;;;;12.35;6.40;;;;;;;;;;7389154;19;19998;-70
2023/04/09 01:31:24;;;;;;;12.93;6.47;;;;;;;;;;7386951;19;20464;-70
2023/04/09 01:33:51;;;;;;;12.73;6.13;;;;;;;;;;7391307;19;19995;-70
2023/04/09 01:36:17;;;;;;;13.02;6.32;;;;;;;;;;7389269;19;19995;-69
2023/04/09 01:38:44;;;;;;;12.88;6.18;;;;;;;;;;7388093;19;20015;-69
2023/04/09 01:41:16;;;;;;;14.63;6.65;;;;;;;;;;7388215;19;19995;-70
2023/04/09 01:43:42;;;;;;;12.73;6.80;;;;;;;;;;7387596;19;20016;-70
2023/04/09 01:46:09;;;;;;;12.77;6.90;;;;;;;;;;7389463;19;20006;-70
2023/04/09 01:48:36;;;;;;;15.75;5.90;;;;;;;;;;7388953;19;20006;-70
2023/04/09 01:51:01;;;;;;;12.15;6.25;;;;;;;;;;7388481;19;20025;-70
2023/04/09 01:53:27;;;;;;;11.77;5.90;;;;;;;;;;7387250;19;20006;-70
2023/04/09 01:55:55;;;;;;;13.38;6.68;;;;;;;;;;7392191;19;20062;-70
2023/04/09 01:58:20;;;;;;;12.95;6.43;;;;;;;;;;7391553;19;19994;-69
2023/04/09 02:00:47;;;;;;;12.95;6.53;;;;;;;;;;7386017;19;20019;-69
2023/04/09 02:03:27;;;;;;;14.63;6.95;;;;;;;;;;7387080;19;20326;-71
2023/04/09 02:06:00;;;;;;;13.10;6.65;;;;;;;;;;7388140;19;20002;-70
2023/04/09 02:08:27;;;;;;;13.25;6.75;;;;;;;;;;7386784;19;20020;-69
2023/04/09 02:10:57;;;;;;;13.10;6.78;;;;;;;;;;7387353;19;20016;-70
2023/04/09 02:13:25;;;;;;;13.88;6.53;;;;;;;;;;7386977;19;20353;-70
2023/04/09 02:15:51;;;;;;;16.05;7.60;;;;;;;;;;7388747;19;20412;-69
2023/04/09 02:18:24;;;;;;;14.65;6.82;;;;;;;;;;7387819;19;19998;-70
2023/04/09 02:20:50;;;;;;;15.60;7.70;;;;;;;;;;7385627;19;20002;-70
2023/04/09 02:23:16;;;;;;;13.07;6.97;;;;;;;;;;7389684;19;20484;-71
2023/04/09 02:25:42;;;;;;;14.05;7.03;;;;;;;;;;7389668;19;20007;-70
2023/04/09 02:28:08;;;;;;;19.80;7.60;;;;;;;;;;7391234;19;20002;-71
2023/04/09 02:30:33;;;;;;;14.73;7.28;;;;;;;;;;7391062;19;20088;-70
2023/04/09 02:32:58;;;;;;;13.57;6.68;;;;;;;;;;7386687;19;20085;-70
2023/04/09 02:35:23;;;;;;;12.75;6.72;;;;;;;;;;7387120;19;20019;-70
2023/04/09 02:37:49;;;;;;;15.40;7.20;;;;;;;;;;7387478;19;20482;-70
2023/04/09 02:40:14;;;;;;;16.08;7.72;;;;;;;;;;7386691;19;20654;-70
2023/04/09 02:42:39;;;;;;;16.35;7.90;;;;;;;;;;7386088;19;20444;-70
2023/04/09 02:45:05;;;;;;;13.30;7.18;;;;;;;;;;7386764;19;20034;-70
2023/04/09 02:47:31;;;;;;;15.05;7.43;;;;;;;;;;7386661;19;19998;-70
2023/04/09 02:49:56;;;;;;;16.27;8.00;;;;;;;;;;7386670;19;20460;-70
2023/04/09 02:52:23;;;;;;;14.10;6.75;;;;;;;;;;7385461;19;20007;-70
2023/04/09 02:54:49;;;;;;;17.98;7.95;;;;;;;;;;7386232;19;20005;-69
2023/04/09 02:57:14;;;;;;;15.23;7.68;;;;;;;;;;7386398;19;19998;-69
2023/04/09 02:59:40;;;;;;;14.35;7.40;;;;;;;;;;7384992;19;20330;-69
2023/04/09 03:02:05;;;;;;;17.98;8.23;;;;;;;;;;7384706;19;20026;-70
2023/04/09 03:04:30;;;;;;;13.45;6.90;;;;;;;;;;7386070;19;20002;-70
2023/04/09 03:06:56;;;;;;;16.05;7.53;;;;;;;;;;7384754;19;20003;-70
2023/04/09 03:09:21;;;;;;;15.98;7.43;;;;;;;;;;7386198;19;20003;-70
2023/04/09 03:11:46;;;;;;;16.83;7.70;;;;;;;;;;7387521;19;20023;-69
2023/04/09 03:14:12;;;;;;;14.00;7.35;;;;;;;;;;7384349;19;20003;-68
2023/04/09 03:16:37;;;;;;;14.38;7.35;;;;;;;;;;7385649;19;20006;-69
2023/04/09 03:19:02;;;;;;;16.52;7.80;;;;;;;;;;7384310;19;19998;-69
2023/04/09 03:21:28;;;;;;;12.38;6.95;;;;;;;;;;7383346;19;19994;-69
2023/04/09 03:23:53;;;;;;;14.60;7.25;;;;;;;;;;7383407;19;20009;-71
2023/04/09 03:26:18;;;;;;;18.77;7.78;;;;;;;;;;7385601;19;19999;-70
2023/04/09 03:28:44;;;;;;;14.98;7.78;;;;;;;;;;7394717;19;20006;-70
2023/04/09 03:31:09;;;;;;;15.25;7.28;;;;;;;;;;7390384;19;20006;-70
2023/04/09 03:33:35;;;;;;;17.98;7.72;;;;;;;;;;7390258;19;20026;-70
2023/04/09 03:36:00;;;;;;;12.50;6.60;;;;;;;;;;7392716;19;20009;-70
2023/04/09 03:38:25;;;;;;;16.92;8.02;;;;;;;;;;7391483;19;20037;-70
2023/04/09 03:40:50;;;;;;;15.00;7.00;;;;;;;;;;7390533;19;20010;-70
2023/04/09 03:43:16;;;;;;;15.02;7.43;;;;;;;;;;7390674;19;20003;-70
2023/04/09 03:45:41;;;;;;;14.15;7.32;;;;;;;;;;7392403;19;20002;-70
2023/04/09 03:48:06;;;;;;;14.50;7.57;;;;;;;;;;7390157;19;20007;-69
2023/04/09 03:50:37;;;;;;;15.55;7.05;;;;;;;;;;7391135;19;20026;-70
2023/04/09 03:53:03;;;;;;;15.27;7.60;;;;;;;;;;7390554;19;20018;-69
2023/04/09 03:55:28;;;;;;;13.60;6.68;;;;;;;;;;7394406;19;20437;-69
2023/04/09 03:57:53;;;;;;;14.80;7.13;;;;;;;;;;7390380;19;20023;-69
2023/04/09 04:00:19;;;;;;;13.68;7.18;;;;;;;;;;7391110;19;20019;-69
2023/04/09 04:02:44;;;;;;;15.48;7.70;;;;;;;;;;7390478;19;20036;-69
2023/04/09 04:05:10;;;;;;;14.50;7.13;;;;;;;;;;7392175;19;20014;-69
2023/04/09 04:07:35;;;;;;;17.63;8.23;;;;;;;;;;7393329;19;20002;-70
2023/04/09 04:10:04;;;;;;;15.18;7.68;;;;;;;;;;7389743;19;20005;-70
2023/04/09 04:12:30;;;;;;;14.63;6.97;;;;;;;;;;7390695;19;19995;-71
2023/04/09 04:14:55;;;;;;;13.15;7.28;;;;;;;;;;7391476;19;20013;-70
2023/04/09 04:17:20;;;;;;;16.15;7.35;;;;;;;;;;7391444;19;19999;-69
2023/04/09 04:19:46;;;;;;;16.63;7.40;;;;;;;;;;7389377;19;20032;-70
2023/04/09 04:22:11;;;;;;;15.35;7.43;;;;;;;;;;7390415;19;20003;-69
2023/04/09 04:24:36;;;;;;;15.90;7.65;;;;;;;;;;7390858;19;20037;-70
2023/04/09 04:27:02;;;;;;;17.55;7.50;;;;;;;;;;7391485;19;20002;-70
2023/04/09 04:29:28;;;;;;;12.90;6.65;;;;;;;;;;7395492;19;20007;-69
2023/04/09 04:31:53;;;;;;;15.30;7.25;;;;;;;;;;7388603;19;20024;-69
2023/04/09 04:34:18;;;;;;;16.17;7.22;;;;;;;;;;7391249;19;20002;-69
2023/04/09 04:36:44;;;;;;;13.88;7.13;;;;;;;;;;7391122;19;20058;-69
2023/04/09 04:39:09;;;;;;;14.45;6.93;;;;;;;;;;7388472;19;19998;-69
2023/04/09 04:41:35;;;;;;;14.27;6.72;;;;;;;;;;7389399;19;20034;-71
2023/04/09 04:44:00;;;;;;;15.07;7.18;;;;;;;;;;7389093;19;20027;-70
2023/04/09 04:46:26;;;;;;;14.13;6.85;;;;;;;;;;7390355;19;20382;-70
2023/04/09 04:48:51;;;;;;;15.52;7.25;;;;;;;;;;7391134;19;20018;-70
2023/04/09 04:51:16;;;;;;;14.88;7.68;;;;;;;;;;7390428;19;20012;-68
2023/04/09 04:53:42;;;;;;;15.23;7.57;;;;;;;;;;7389042;19;20007;-69
2023/04/09 04:56:14;;;;;;;15.38;7.82;;;;;;;;;;7390404;19;20003;-69
2023/04/09 04:58:40;;;;;;;13.60;6.65;;;;;;;;;;7389515;19;20007;-70
2023/04/09 05:01:05;;;;;;;15.95;6.75;;;;;;;;;;7388262;19;20467;-70
2023/04/09 05:03:30;;;;;;;14.07;6.72;;;;;;;;;;7389266;19;20488;-70
2023/04/09 05:05:56;;;;;;;13.40;6.78;;;;;;;;;;7390912;19;20002;-69
2023/04/09 05:08:21;;;;;;;17.88;7.85;;;;;;;;;;7390766;19;20003;-69
2023/04/09 05:10:46;;;;;;;14.07;7.60;;;;;;;;;;7392716;19;20029;-69
2023/04/09 05:13:12;;;;;;;15.48;7.60;;;;;;;;;;7386167;19;20088;-69
2023/04/09 05:15:41;;;;;;;16.63;7.93;;;;;;;;;;7384688;19;20005;-69
2023/04/09 05:18:07;;;;;;;16.70;7.82;;;;;;;;;;7386710;19;20071;-69
2023/04/09 05:20:33;;;;;;;14.32;6.88;;;;;;;;;;7392159;19;20006;-69
2023/04/09 05:22:58;;;;;;;17.75;7.47;;;;;;;;;;7387720;19;20003;-69
2023/04/09 05:25:24;;;;;;;17.67;8.10;;;;;;;;;;7390007;19;20018;-68
2023/04/09 05:27:49;;;;;;;17.58;7.60;;;;;;;;;;7388201;19;20037;-69
2023/04/09 05:30:15;;;;;;;15.48;7.68;;;;;;;;;;7385411;19;20070;-68
2023/04/09 05:32:40;;;;;;;16.20;7.82;;;;;;;;;;7384909;19;20519;-69
2023/04/09 05:35:06;;;;;;;16.58;8.00;;;;;;;;;;7386215;19;20476;-69
2023/04/09 05:37:31;;;;;;;15.65;7.82;;;;;;;;;;7386554;19;20032;-71
2023/04/09 05:39:57;;;;;;;17.17;7.63;;;;;;;;;;7384119;19;20370;-70
2023/04/09 05:42:22;;;;;;;13.50;7.28;;;;;;;;;;7384682;19;20014;-70
2023/04/09 05:44:47;;;;;;;15.82;7.55;;;;;;;;;;7388237;19;20094;-69
2023/04/09 05:47:12;;;;;;;14.98;7.60;;;;;;;;;;7388701;19;20484;-70
2023/04/09 05:49:38;;;;;;;15.00;8.13;;;;;;;;;;7386740;19;20036;-69
2023/04/09 05:52:03;;;;;;;15.30;7.82;;;;;;;;;;7387494;19;20019;-70
2023/04/09 05:54:29;;;;;;;22.13;7.97;;;;;;;;;;7388864;19;20019;-70
2023/04/09 05:56:55;;;;;;;17.50;8.30;;;;;;;;;;7388304;19;20511;-70
2023/04/09 05:59:20;;;;;;;17.45;7.70;;;;;;;;;;7390693;19;19999;-69
2023/04/09 06:01:45;;;;;;;15.80;8.20;;;;;;;;;;7389193;19;20002;-69
2023/04/09 06:04:11;;;;;;;15.88;8.18;;;;;;;;;;7390887;19;20001;-69
2023/04/09 06:06:37;;;;;;;15.80;8.23;;;;;;;;;;7389643;19;19995;-70
2023/04/09 06:09:03;;;;;;;16.75;8.55;;;;;;;;;;7392178;19;19999;-69
2023/04/09 06:11:29;;;;;;;19.33;9.40;;;;;;;;;;7390307;19;20031;-80
2023/04/09 06:13:54;;;;;;;16.17;8.57;;;;;;;;;;7387621;19;20002;-80
2023/04/09 06:16:20;;;;;;;20.05;9.20;;;;;;;;;;7390666;19;19995;-80
2023/04/09 06:18:45;;;;;;;16.17;8.98;;;;;;;;;;7391901;19;20423;-80
2023/04/09 06:21:12;;;;;;;16.63;8.38;;;;;;;;;;7391193;19;20507;-69
2023/04/09 06:23:38;;;;;;;17.23;8.63;;;;;;;;;;7389365;19;20466;-69
2023/04/09 06:26:04;;;;;;;16.30;8.77;;;;;;;;;;7386153;19;20364;-69
2023/04/09 06:28:30;;;;;;;13.63;8.32;;;;;;;;;;7380587;19;20007;-69
2023/04/09 06:30:56;;;;;;;13.00;7.93;;;;;;;;;;7381486;19;20342;-69
2023/04/09 06:33:22;;;;;;;15.45;8.38;;;;;;;;;;7384436;19;20007;-69
2023/04/09 06:35:48;;;;;;;16.52;8.88;;;;;;;;;;7383931;19;20003;-69
2023/04/09 06:38:14;;;;;;;14.93;8.75;;;;;;;;;;7378740;19;20018;-70
2023/04/09 06:40:39;;;;;;;15.75;8.40;;;;;;;;;;7382945;19;20429;-69
2023/04/09 06:43:05;;;;;;;14.68;8.57;;;;;;;;;;7380372;19;20037;-70
2023/04/09 06:45:32;;;;;;;16.08;9.40;;;;;;;;;;7386618;19;20036;-70
2023/04/09 06:47:58;;;;;;;22.05;9.35;;;;;;;;;;7383041;19;19999;-70
2023/04/09 06:50:23;;;;;;;18.08;9.10;;;;;;;;;;7383024;19;20046;-69
2023/04/09 06:52:50;;;;;;;15.98;9.40;;;;;;;;;;7382152;19;20464;-72
2023/04/09 06:55:15;;;;;;;14.45;8.48;;;;;;;;;;7383031;19;20006;-72
2023/04/09 06:57:40;;;;;;;16.95;9.98;;;;;;;;;;7385043;19;20002;-72
2023/04/09 07:00:07;;;;;;;16.60;9.73;;;;;;;;;;7379387;19;20456;-71
2023/04/09 07:02:33;;;;;;;18.83;10.32;;;;;;;;;;7389593;19;20137;-72
2023/04/09 07:04:58;;;;;;;16.08;10.27;;;;;;;;;;7389434;19;20002;-71
2023/04/09 07:07:24;;;;;;;19.17;10.48;;;;;;;;;;7391065;19;19998;-72
2023/04/09 07:09:50;;;;;;;15.07;9.68;;;;;;;;;;7389752;19;20036;-73
2023/04/09 07:12:25;;;;;;;14.57;9.10;;;;;;;;;;7389262;19;20006;-72
2023/04/09 07:14:51;;;;;;;17.08;9.18;;;;;;;;;;7386438;19;20017;-74
2023/04/09 07:17:16;;;;;;;17.15;10.38;;;;;;;;;;7389912;19;20394;-73
2023/04/09 07:19:41;;;;;;;17.25;8.82;;;;;;;;;;7389083;19;20059;-73
2023/04/09 07:22:06;;;;;;;16.70;9.73;;;;;;;;;;7389963;19;19994;-72
2023/04/09 07:24:32;;;;;;;17.38;9.90;;;;;;;;;;7392743;19;20408;-73
2023/04/09 07:26:57;;;;;;;17.05;9.80;;;;;;;;;;7389638;19;20006;-72
2023/04/09 07:29:22;;;;;;;17.63;9.98;;;;;;;;;;7391533;19;20015;-71
2023/04/09 07:31:47;;;;;;;18.33;10.52;;;;;;;;;;7389264;19;20003;-73
2023/04/09 07:34:13;;;;;;;21.15;11.75;;;;;;;;;;7388142;19;20456;-72
2023/04/09 07:36:39;;;;;;;22.10;10.60;;;;;;;;;;7389961;19;20005;-71
2023/04/09 07:39:05;;;;;;;13.38;8.45;;;;;;;;;;7388450;19;20606;-72
2023/04/09 07:41:30;;;;;;;13.40;8.43;;;;;;;;;;7387222;19;20011;-71
2023/04/09 07:43:55;;;;;;;14.43;7.85;;;;;;;;;;7384588;19;20078;-71
2023/04/09 07:46:21;;;;;;;16.13;9.13;;;;;;;;;;7387017;19;20022;-72
2023/04/09 07:48:48;;;;;;;19.60;10.32;;;;;;;;;;7389002;19;20002;-71
2023/04/09 07:51:14;;;;;;;20.10;10.98;;;;;;;;;;7387260;19;20067;-72
2023/04/09 07:53:40;;;;;;;15.52;8.18;;;;;;;;;;7387753;19;20032;-73
2023/04/09 07:56:05;;;;;;;13.30;6.75;;;;;;;;;;7387773;19;20002;-71
2023/04/09 07:58:31;;;;;;;18.13;10.57;;;;;;;;;;7387630;19;20440;-71
2023/04/09 08:00:56;;;;;;;14.00;7.70;;;;;;;;;;7389430;19;20033;-72
2023/04/09 08:03:22;;;;;;;18.48;11.23;;;;;;;;;;7385367;19;20010;-72
2023/04/09 08:05:47;;;;;;;16.08;9.38;;;;;;;;;;7390122;19;20027;-73
2023/04/09 08:08:12;;;;;;;18.02;11.10;;;;;;;;;;7387578;19;20071;-72
2023/04/09 08:10:38;;;;;;;19.50;11.20;;;;;;;;;;7388739;19;20017;-72
2023/04/09 08:13:03;;;;;;;15.90;9.45;;;;;;;;;;7384322;19;20010;-71
2023/04/09 08:15:28;;;;;;;18.63;9.70;;;;;;;;;;7390235;19;20010;-70
2023/04/09 08:17:54;;;;;;;16.58;9.70;;;;;;;;;;7387432;19;19999;-72
2023/04/09 08:20:19;;;;;;;15.25;8.60;;;;;;;;;;7384925;19;20036;-72
2023/04/09 08:22:44;;;;;;;16.00;8.38;;;;;;;;;;7387396;19;20011;-74
2023/04/09 08:25:10;;;;;;;16.45;9.27;;;;;;;;;;7390187;19;20372;-71
2023/04/09 08:27:35;;;;;;;16.05;10.07;;;;;;;;;;7388854;19;20017;-72
2023/04/09 08:30:02;;;;;;;16.50;10.40;;;;;;;;;;7389209;19;20344;-71
2023/04/09 08:32:28;;;;;;;17.65;11.65;;;;;;;;;;7386111;19;20030;-71
2023/04/09 08:34:53;;;;;;;18.33;9.23;;;;;;;;;;7389445;19;20010;-73
2023/04/09 08:37:18;;;;;;;19.92;12.13;;;;;;;;;;7387243;19;20010;-72
2023/04/09 08:39:44;;;;;;;20.33;12.45;;;;;;;;;;7387644;19;20460;-72
2023/04/09 08:42:11;;;;;;;16.73;11.05;;;;;;;;;;7388233;19;20115;-74
2023/04/09 08:44:37;;;;;;;15.10;9.43;;;;;;;;;;7389439;19;20003;-73
2023/04/09 08:47:08;;;;;;;18.55;10.63;;;;;;;;;;7389641;19;20006;-73
2023/04/09 08:49:34;;;;;;;17.58;11.13;;;;;;;;;;7387287;19;20034;-72
2023/04/09 08:52:00;;;;;;;18.63;11.00;;;;;;;;;;7389029;19;20015;-72
2023/04/09 08:54:25;;;;;;;16.30;10.85;;;;;;;;;;7388092;19;20002;-71
2023/04/09 08:56:51;;;;;;;15.75;10.43;;;;;;;;;;7386471;19;20006;-72
2023/04/09 08:59:17;;;;;;;15.73;10.25;;;;;;;;;;7384927;19;20010;-72
2023/04/09 09:01:45;;;;;;;17.02;9.50;;;;;;;;;;7386870;19;20006;-71
2023/04/09 09:04:10;;;;;;;15.32;10.38;;;;;;;;;;7386960;19;20006;-72
2023/04/09 09:06:38;;;;;;;17.13;10.88;;;;;;;;;;7387874;19;20035;-71
2023/04/09 09:09:11;;;;;;;18.23;10.35;;;;;;;;;;7387679;19;20400;-71
2023/04/09 09:11:39;;;;;;;14.77;9.77;;;;;;;;;;7385723;19;20824;-72
2023/04/09 09:14:11;;;;;;;16.75;10.15;;;;;;;;;;7387695;19;20500;-71
2023/04/09 09:16:42;;;;;;;15.35;9.57;;;;;;;;;;7388074;19;20014;-72
2023/04/09 09:19:07;;;;;;;;;;;;;;;;;;7386720;19;20133;-70
2023/04/09 09:21:35;;;;;;;14.05;8.93;;;;;;;;;;7383670;19;20361;-70
2023/04/09 09:24:01;;;;;;;15.95;10.32;;;;;;;;;;7386820;19;20286;-70
2023/04/09 09:26:28;;;;;;;13.77;8.98;;;;;;;;;;7385605;19;20025;-70
2023/04/09 09:28:54;;;;;;;12.98;8.57;;;;;;;;;;7386415;19;20006;-71
2023/04/09 09:31:21;;;;;;;13.93;8.45;;;;;;;;;;7382857;19;20007;-72
2023/04/09 09:33:47;;;;;;;15.55;9.98;;;;;;;;;;7385843;19;20074;-72
2023/04/09 09:36:33;;;;;;;13.07;9.38;;;;;;;;;;7383669;19;20017;-73
2023/04/09 09:39:08;;;;;;;13.70;8.88;;;;;;;;;;7387141;19;20327;-71
2023/04/09 09:41:34;;;;;;;13.15;9.45;;;;;;;;;;7384694;19;20005;-72
2023/04/09 09:44:00;;;;;;;13.18;8.93;;;;;;;;;;7385093;19;20007;-71
2023/04/09 09:46:26;;;;;;;15.48;9.65;;;;;;;;;;7386287;19;20010;-71
2023/04/09 09:48:51;;;;;;;13.27;8.30;;;;;;;;;;7382827;19;20543;-73
2023/04/09 09:51:18;;;;;;;12.30;8.20;;;;;;;;;;7381043;19;20003;-72
2023/04/09 09:53:44;;;;;;;11.95;8.13;;;;;;;;;;7381989;19;20019;-69
2023/04/09 09:56:20;;;;;;;14.02;8.70;;;;;;;;;;7385474;19;20031;-69
2023/04/09 09:58:55;;;;;;;13.85;8.38;;;;;;;;;;7381453;19;20432;-70
2023/04/09 10:01:24;;;;;;;12.07;8.43;;;;;;;;;;7385752;19;20010;-70
2023/04/09 10:03:51;;;;;;;10.55;7.78;;;;;;;;;;7385523;19;20033;-70
2023/04/09 10:06:17;;;;;;;11.25;7.75;;;;;;;;;;7386001;19;20079;-73
2023/04/09 10:08:44;;;;;;;11.50;8.07;;;;;;;;;;7383876;19;20011;-72
2023/04/09 10:11:09;;;;;;;11.70;7.70;;;;;;;;;;7385186;19;20452;-70
2023/04/09 10:13:39;;;;;;;11.00;7.00;;;;;;;;;;7382360;19;20009;-69
2023/04/09 10:16:06;;;;;;;10.55;7.03;;;;;;;;;;7386506;19;20006;-70
2023/04/09 10:18:32;;;;;;;10.48;6.75;;;;;;;;;;7390305;19;20495;-70
2023/04/09 10:21:11;;;;;;;9.93;6.45;;;;;;;;;;7318917;19;20074;-69
2023/04/09 10:23:41;;;;;;;11.35;7.72;;;;;;;;;;7388877;19;19999;-70
2023/04/09 10:26:07;;;;;;;10.57;7.43;;;;;;;;;;7380859;19;19998;-70
2023/04/09 10:28:33;;;;;;;11.32;7.75;;;;;;;;;;7381216;19;20341;-69
2023/04/09 10:30:59;;;;;;;10.05;5.82;;;;;;;;;;7380857;19;20027;-70
2023/04/09 10:33:26;;;;;;;8.00;5.30;;;;;;;;;;7380248;19;20019;-69
2023/04/09 10:36:00;;;;;;;8.68;5.38;;;;;;;;;;7381274;19;20003;-69
2023/04/09 10:38:36;;;;;;;7.80;4.72;;;;;;;;;;7387812;19;20479;-69
2023/04/09 10:41:15;;;;;;;7.78;5.40;;;;;;;;;;7392353;19;20398;-70
2023/04/09 10:43:40;;;;;;;9.13;5.82;;;;;;;;;;7391632;19;20019;-70
2023/04/09 10:46:24;;;;;;;9.85;5.85;;;;;;;;;;7393109;19;20006;-69
2023/04/09 10:49:07;;;;;;;9.70;5.75;;;;;;;;;;7392582;19;20397;-69
2023/04/09 10:51:40;;;;;;;9.98;6.45;;;;;;;;;;7392045;19;20378;-69
2023/04/09 10:54:26;;;;;;;9.43;5.30;;;;;;;;;;7392390;19;20003;-69
2023/04/09 10:57:06;;;;;;;9.35;5.78;;;;;;;;;;7392096;19;20018;-69
2023/04/09 10:59:32;;;;;;;8.85;5.60;;;;;;;;;;7390347;19;20286;-69
2023/04/09 11:01:58;;;;;;;9.88;6.80;;;;;;;;;;7391557;19;20112;-70
2023/04/09 11:04:33;;;;;;;8.68;5.43;;;;;;;;;;7392017;19;20107;-69
2023/04/09 11:06:59;;;;;;;10.05;5.88;;;;;;;;;;7391816;19;19999;-69
2023/04/09 11:09:25;;;;;;;9.52;6.22;;;;;;;;;;7393005;19;20007;-69
2023/04/09 11:11:52;;;;;;;10.10;6.18;;;;;;;;;;7390598;19;20005;-69
2023/04/09 11:14:41;;;;;;;10.48;6.15;;;;;;;;;;7392289;19;20010;-69
2023/04/09 11:17:06;;;;;;;11.23;7.15;;;;;;;;;;7391337;19;20023;-69
2023/04/09 11:19:33;;;;;;;10.48;6.30;;;;;;;;;;7390186;19;20100;-68
2023/04/09 11:21:58;;;;;;;8.20;5.45;;;;;;;;;;7390353;19;20042;-70
2023/04/09 11:24:24;;;;;;;9.13;5.15;;;;;;;;;;7392050;19;20112;-69
2023/04/09 11:26:50;;;;;;;9.63;5.78;;;;;;;;;;7391871;19;20006;-69
2023/04/09 11:29:15;;;;;;;9.73;6.03;;;;;;;;;;7391846;19;19999;-67
2023/04/09 11:31:43;;;;;;;9.32;6.05;;;;;;;;;;7390576;19;20002;-67
2023/04/09 11:34:12;;;;;;;9.63;5.65;;;;;;;;;;7395378;19;20015;-69
2023/04/09 11:36:37;;;;;;;10.70;7.15;;;;;;;;;;7394052;19;20004;-69
2023/04/09 11:39:03;;;;;;;8.98;5.72;;;;;;;;;;7392848;19;20068;-69
2023/04/09 11:41:36;;;;;;;9.38;5.88;;;;;;;;;;7393575;19;19999;-68
2023/04/09 11:44:03;;;;;;;9.45;5.15;;;;;;;;;;7391588;19;20034;-67
2023/04/09 11:46:31;;;;;;;10.93;6.15;;;;;;;;;;7382923;19;20103;-69
2023/04/09 11:48:57;;;;;;;10.25;6.25;;;;;;;;;;7387625;19;20044;-68
2023/04/09 11:51:22;;;;;;;11.68;6.65;;;;;;;;;;7383878;19;20381;-69
2023/04/09 11:53:49;;;;;;;9.32;5.93;;;;;;;;;;7386827;19;20013;-68
2023/04/09 11:56:15;;;;;;;10.57;6.70;;;;;;;;;;7384438;19;20450;-67
2023/04/09 11:58:46;;;;;;;9.52;5.93;;;;;;;;;;7387061;19;20006;-68
2023/04/09 12:01:11;;;;;;;8.88;4.60;;;;;;;;;;7385175;19;20125;-67
2023/04/09 12:03:37;;;;;;;9.95;6.07;;;;;;;;;;7387592;19;20037;-71
2023/04/09 12:06:06;;;;;;;10.45;6.53;;;;;;;;;;7387206;19;20025;-71
2023/04/09 12:08:36;;;;;;;9.43;6.28;;;;;;;;;;7389076;19;20011;-71
2023/04/09 12:11:09;;;;;;;9.45;5.93;;;;;;;;;;7388891;19;20681;-70
2023/04/09 12:13:34;;;;;;;9.20;5.72;;;;;;;;;;7386960;19;20298;-70
2023/04/09 12:16:01;;;;;;;8.95;6.10;;;;;;;;;;7389534;19;20003;-70
2023/04/09 12:18:27;;;;;;;9.10;5.70;;;;;;;;;;7385907;19;20010;-68
2023/04/09 12:20:52;;;;;;;8.57;5.50;;;;;;;;;;7389289;19;20455;-71
2023/04/09 12:23:17;;;;;;;9.57;6.22;;;;;;;;;;7386215;19;20024;-69
2023/04/09 12:25:44;;;;;;;8.55;4.95;;;;;;;;;;7387139;19;20010;-69
2023/04/09 12:28:15;;;;;;;10.40;6.22;;;;;;;;;;7384478;19;20074;-69
2023/04/09 12:30:41;;;;;;;8.90;5.45;;;;;;;;;;7384138;19;20010;-69
2023/04/09 12:33:07;;;;;;;8.35;5.28;;;;;;;;;;7385889;19;20002;-69
2023/04/09 12:35:33;;;;;;;8.77;6.00;;;;;;;;;;7388471;19;20543;-68
2023/04/09 12:37:58;;;;;;;12.05;6.10;;;;;;;;;;7389082;19;20002;-69
2023/04/09 12:40:24;;;;;;;10.43;6.53;;;;;;;;;;7384146;19;20630;-68
2023/04/09 12:42:50;;;;;;;12.10;6.53;;;;;;;;;;7386467;19;20487;-69
2023/04/09 12:45:18;;;;;;;10.05;6.32;;;;;;;;;;7384603;19;20003;-69
2023/04/09 12:47:44;;;;;;;10.55;6.28;;;;;;;;;;7388295;19;20464;-69
2023/04/09 12:50:10;;;;;;;11.02;6.60;;;;;;;;;;7382791;19;20006;-69
2023/04/09 12:52:36;;;;;;;9.35;6.18;;;;;;;;;;7387944;19;20015;-68
2023/04/09 12:55:03;;;;;;;10.38;5.85;;;;;;;;;;7385763;19;19998;-67
2023/04/09 12:57:28;;;;;;;9.40;6.00;;;;;;;;;;7386829;19;20081;-68
2023/04/09 12:59:54;;;;;;;9.20;5.88;;;;;;;;;;7384012;19;20411;-68
2023/04/09 13:02:22;;;;;;;8.63;5.47;;;;;;;;;;7384042;19;20007;-69
2023/04/09 13:04:48;;;;;;;8.88;5.72;;;;;;;;;;7387195;19;20002;-69
2023/04/09 13:07:16;;;;;;;7.25;4.90;;;;;;;;;;7386677;19;20009;-69
2023/04/09 13:09:41;;;;;;;8.15;5.25;;;;;;;;;;7387854;19;20021;-69
2023/04/09 13:12:06;;;;;;;8.07;5.45;;;;;;;;;;7385392;19;20070;-69
2023/04/09 13:14:32;;;;;;;7.70;5.25;;;;;;;;;;7388462;19;20070;-70
2023/04/09 13:16:57;;;;;;;7.90;5.25;;;;;;;;;;7389806;19;20018;-69
2023/04/09 13:19:23;;;;;;;9.48;6.25;;;;;;;;;;7388147;19;20007;-68
2023/04/09 13:21:48;;;;;;;9.68;5.70;;;;;;;;;;7389570;19;20639;-69
2023/04/09 13:24:13;;;;;;;9.48;5.68;;;;;;;;;;7383842;19;19999;-69
2023/04/09 13:26:40;;;;;;;9.32;5.70;;;;;;;;;;7383532;19;20411;-69
2023/04/09 13:29:07;;;;;;;8.55;6.00;;;;;;;;;;7381896;19;20024;-69
2023/04/09 13:31:34;;;;;;;7.50;4.80;;;;;;;;;;7386690;19;20078;-69
2023/04/09 13:33:59;;;;;;;7.60;4.75;;;;;;;;;;7381893;19;20027;-69
2023/04/09 13:36:26;;;;;;;7.70;4.50;;;;;;;;;;7383047;19;20003;-68
2023/04/09 13:38:51;;;;;;;8.98;4.95;;;;;;;;;;7384766;19;20002;-68
2023/04/09 13:41:17;;;;;;;8.63;5.05;;;;;;;;;;7386413;19;19999;-68
2023/04/09 13:43:43;;;;;;;7.28;4.90;;;;;;;;;;7383749;19;20003;-68
2023/04/09 13:46:09;;;;;;;8.30;5.15;;;;;;;;;;7386746;19;19999;-69
2023/04/09 13:48:34;;;;;;;10.02;5.32;;;;;;;;;;7387042;19;20046;-69
2023/04/09 13:51:00;;;;;;;6.85;4.60;;;;;;;;;;7386777;19;20395;-69
2023/04/09 13:53:25;;;;;;;7.90;4.70;;;;;;;;;;7385438;19;19999;-69
2023/04/09 13:55:51;;;;;;;8.50;4.80;;;;;;;;;;7387674;19;20558;-69
2023/04/09 13:58:16;;;;;;;7.68;4.35;;;;;;;;;;7386655;19;20002;-69
2023/04/09 14:00:42;;;;;;;8.10;4.82;;;;;;;;;;7385997;19;20033;-69
2023/04/09 14:03:07;;;;;;;7.43;4.30;;;;;;;;;;7388608;19;20003;-69
2023/04/09 14:05:33;;;;;;;7.68;4.60;;;;;;;;;;7386859;19;19999;-68
2023/04/09 14:07:58;;;;;;;8.32;5.10;;;;;;;;;;7386540;19;20353;-68
2023/04/09 14:10:23;;;;;;;8.52;4.57;;;;;;;;;;7384106;19;19998;-69
2023/04/09 14:12:49;;;;;;;7.80;4.90;;;;;;;;;;7386957;19;20331;-69
2023/04/09 14:15:14;;;;;;;7.15;4.43;;;;;;;;;;7389474;19;20013;-68
2023/04/09 14:17:43;;;;;;;6.30;4.32;;;;;;;;;;7386330;19;20002;-68
2023/04/09 14:20:08;;;;;;;6.90;4.43;;;;;;;;;;7384519;19;19999;-68
2023/04/09 14:22:33;;;;;;;7.97;4.38;;;;;;;;;;7385089;19;20013;-69
2023/04/09 14:24:59;;;;;;;7.32;4.68;;;;;;;;;;7388546;19;19998;-67
2023/04/09 14:27:24;;;;;;;6.35;4.22;;;;;;;;;;7386255;19;20005;-68
2023/04/09 14:29:50;;;;;;;6.97;4.45;;;;;;;;;;7386030;19;20391;-68
2023/04/09 14:32:15;;;;;;;6.72;4.35;;;;;;;;;;7384908;19;20551;-68